createdAt,value
2022-11-12T00:00:56.052Z,100165.28
2022-11-12T00:03:22.491Z,100169.56
2022-11-12T00:05:49.502Z,100161.44
2022-11-12T00:08:16.937Z,100161.28
2022-11-12T00:10:43.943Z,100154.81
2022-11-12T00:13:10.369Z,100155.34
2022-11-12T00:15:36.843Z,100158.00
2022-11-12T00:18:03.614Z,100161.47
2022-11-12T00:20:30.039Z,100171.41
2022-11-12T00:22:56.448Z,100172.31
2022-11-12T00:25:23.234Z,100169.06
2022-11-12T00:27:49.629Z,100169.34
2022-11-12T00:30:16.403Z,100172.91
2022-11-12T00:32:42.801Z,100169.47
2022-11-12T00:35:13.418Z,100170.03
2022-11-12T00:37:40.782Z,100169.88
2022-11-12T00:40:09.047Z,100176.47
2022-11-12T00:42:35.541Z,100182.47
2022-11-12T00:45:02.122Z,100172.47
2022-11-12T00:47:28.532Z,100170.63
2022-11-12T00:49:54.998Z,100173.22
2022-11-12T00:52:21.421Z,100177.50
2022-11-12T00:54:48.246Z,100168.56
2022-11-12T00:57:14.643Z,100171.06
2022-11-12T00:59:41.018Z,100164.19
2022-11-12T01:02:07.411Z,100162.91
2022-11-12T01:04:33.985Z,100162.63
2022-11-12T01:07:00.522Z,100160.41
2022-11-12T01:09:27.036Z,100151.19
2022-11-12T01:11:53.437Z,100164.34
2022-11-12T01:14:19.829Z,100166.81
2022-11-12T01:16:46.444Z,100157.16
2022-11-12T01:19:13.750Z,100155.44
2022-11-12T01:21:43.063Z,100150.66
2022-11-12T01:24:10.077Z,100146.47
2022-11-12T01:26:37.000Z,100154.72
2022-11-12T01:29:03.544Z,100149.47
2022-11-12T01:31:35.445Z,100150.66
2022-11-12T01:34:05.327Z,100151.69
2022-11-12T01:36:35.752Z,100149.19
2022-11-12T01:39:02.844Z,100144.56
2022-11-12T01:41:32.032Z,100141.75
2022-11-12T01:44:16.813Z,100148.91
2022-11-12T01:47:00.549Z,100148.91
2022-11-12T01:49:38.426Z,100141.47
2022-11-12T01:52:34.407Z,100148.59
2022-11-12T01:55:05.281Z,100152.16
2022-11-12T01:57:38.740Z,100150.78
2022-11-12T02:00:12.456Z,100143.97
2022-11-12T02:02:39.909Z,100143.06
2022-11-12T02:05:09.819Z,100146.84
2022-11-12T02:07:39.483Z,100152.03
2022-11-12T02:10:07.785Z,100142.66
2022-11-12T02:12:53.339Z,100149.84
2022-11-12T02:15:19.955Z,100140.41
2022-11-12T02:17:46.464Z,100143.34
2022-11-12T02:20:14.692Z,100133.50
2022-11-12T02:22:41.074Z,100128.16
2022-11-12T02:25:12.848Z,100129.66
2022-11-12T02:27:39.324Z,100130.03
2022-11-12T02:30:06.336Z,100127.19
2022-11-12T02:32:32.909Z,100129.59
2022-11-12T02:34:59.296Z,100127.47
2022-11-12T02:37:25.683Z,100139.53
2022-11-12T02:39:52.118Z,100144.72
2022-11-12T02:42:18.537Z,100137.44
2022-11-12T02:44:45.044Z,100135.66
2022-11-12T02:47:11.442Z,100133.28
2022-11-12T02:49:37.840Z,100128.88
2022-11-12T02:52:04.975Z,100130.09
2022-11-12T02:54:31.467Z,100126.56
2022-11-12T02:56:57.841Z,100129.94
2022-11-12T02:59:24.246Z,100129.25
2022-11-12T03:01:50.789Z,100125.06
2022-11-12T03:04:17.192Z,100142.66
2022-11-12T03:06:43.804Z,100150.44
2022-11-12T03:09:12.480Z,100141.59
2022-11-12T03:11:38.964Z,100141.91
2022-11-12T03:14:05.396Z,100130.53
2022-11-12T03:16:31.985Z,100139.22
2022-11-12T03:18:58.357Z,100138.28
2022-11-12T03:21:24.858Z,100142.66
2022-11-12T03:23:51.276Z,100147.00
2022-11-12T03:26:17.686Z,100145.66
2022-11-12T03:28:44.094Z,100150.16
2022-11-12T03:31:11.908Z,100148.94
2022-11-12T03:33:38.330Z,100145.13
2022-11-12T03:36:05.200Z,100142.63
2022-11-12T03:38:31.587Z,100148.44
2022-11-12T03:40:58.035Z,100137.78
2022-11-12T03:43:27.114Z,100146.22
2022-11-12T03:45:53.757Z,100127.63
2022-11-12T03:48:20.247Z,100130.22
2022-11-12T03:50:46.738Z,100132.66
2022-11-12T03:53:13.478Z,100129.81
2022-11-12T03:55:39.906Z,100134.97
2022-11-12T03:58:06.467Z,100124.97
2022-11-12T04:00:32.959Z,100126.50
2022-11-12T04:02:59.750Z,100123.47
2022-11-12T04:05:45.143Z,100132.97
2022-11-12T04:08:36.272Z,100132.75
2022-11-12T04:11:09.501Z,100138.16
2022-11-12T04:13:38.361Z,100139.94
2022-11-12T04:16:29.541Z,100134.38
2022-11-12T04:19:16.967Z,100138.56
2022-11-12T04:21:55.067Z,100142.44
2022-11-12T04:24:48.977Z,100136.09
2022-11-12T04:27:17.882Z,100140.31
2022-11-12T04:30:14.360Z,100142.19
2022-11-12T04:33:01.313Z,100145.53
2022-11-12T04:35:27.858Z,100150.78
2022-11-12T04:37:55.115Z,100140.25
2022-11-12T04:40:42.898Z,100143.25
2022-11-12T04:43:30.351Z,100147.69
2022-11-12T04:45:57.503Z,100145.81
2022-11-12T04:48:25.524Z,100147.59
2022-11-12T04:50:58.473Z,100148.09
2022-11-12T04:53:25.413Z,100145.31
2022-11-12T04:55:53.388Z,100139.63
2022-11-12T04:58:20.303Z,100139.19
2022-11-12T05:00:47.844Z,100143.25
2022-11-12T05:03:15.174Z,100148.13
2022-11-12T05:05:41.575Z,100145.41
2022-11-12T05:08:08.003Z,100136.47
2022-11-12T05:10:34.531Z,100136.00
2022-11-12T05:13:00.983Z,100139.81
2022-11-12T05:15:27.405Z,100143.16
2022-11-12T05:17:53.796Z,100146.03
2022-11-12T05:20:20.282Z,100146.59
2022-11-12T05:23:04.463Z,100135.06
2022-11-12T05:25:31.856Z,100139.63
2022-11-12T05:27:58.242Z,100132.38
2022-11-12T05:30:24.713Z,100136.66
2022-11-12T05:32:51.300Z,100135.72
2022-11-12T05:35:17.758Z,100132.59
2022-11-12T05:37:44.264Z,100129.84
2022-11-12T05:40:11.211Z,100140.38
2022-11-12T05:42:37.629Z,100135.03
2022-11-12T05:45:04.576Z,100127.59
2022-11-12T05:47:30.974Z,100129.31
2022-11-12T05:49:57.362Z,100124.78
2022-11-12T05:52:23.755Z,100118.38
2022-11-12T05:54:50.126Z,100123.53
2022-11-12T05:57:16.504Z,100127.06
2022-11-12T05:59:42.893Z,100125.53
2022-11-12T06:02:09.327Z,100128.81
2022-11-12T06:04:35.810Z,100131.34
2022-11-12T06:07:04.174Z,100134.28
2022-11-12T06:09:30.778Z,100132.78
2022-11-12T06:11:57.184Z,100130.88
2022-11-12T06:14:23.700Z,100136.81
2022-11-12T06:16:50.289Z,100142.69
2022-11-12T06:19:16.927Z,100142.69
2022-11-12T06:21:43.339Z,100144.19
2022-11-12T06:24:10.272Z,100145.97
2022-11-12T06:26:37.920Z,100136.44
2022-11-12T06:29:04.340Z,100149.47
2022-11-12T06:31:31.037Z,100145.25
2022-11-12T06:33:57.431Z,100140.22
2022-11-12T06:36:24.471Z,100148.53
2022-11-12T06:38:50.887Z,100150.25
2022-11-12T06:41:17.748Z,100146.66
2022-11-12T06:43:44.207Z,100151.00
2022-11-12T06:46:15.854Z,100149.47
2022-11-12T06:48:42.777Z,100156.69
2022-11-12T06:51:17.619Z,100148.88
2022-11-12T06:53:44.644Z,100157.88
2022-11-12T06:56:11.847Z,100153.41
2022-11-12T06:58:38.299Z,100148.88
2022-11-12T07:01:11.155Z,100139.19
2022-11-12T07:03:39.185Z,100148.69
2022-11-12T07:06:08.351Z,100152.09
2022-11-12T07:08:34.924Z,100151.25
2022-11-12T07:11:01.529Z,100149.53
2022-11-12T07:13:30.900Z,100152.34
2022-11-12T07:15:58.900Z,100160.19
2022-11-12T07:18:26.191Z,100165.28
2022-11-12T07:20:58.501Z,100153.81
2022-11-12T07:23:25.116Z,100156.84
2022-11-12T07:26:02.101Z,100166.13
2022-11-12T07:28:29.085Z,100166.47
2022-11-12T07:31:06.853Z,100171.31
2022-11-12T07:33:34.511Z,100169.44
2022-11-12T07:36:04.129Z,100172.00
2022-11-12T07:38:32.754Z,100180.47
2022-11-12T07:41:05.934Z,100176.63
2022-11-12T07:43:33.813Z,100173.41
2022-11-12T07:46:07.510Z,100167.00
2022-11-12T07:48:37.095Z,100172.66
2022-11-12T07:51:06.733Z,100181.88
2022-11-12T07:53:34.013Z,100173.63
2022-11-12T07:56:02.277Z,100164.38
2022-11-12T07:58:31.644Z,100162.19
2022-11-12T08:00:58.999Z,100155.31
2022-11-12T08:03:25.844Z,100150.59
2022-11-12T08:05:52.223Z,100149.69
2022-11-12T08:08:18.803Z,100150.56
2022-11-12T08:10:45.192Z,100152.88
2022-11-12T08:13:11.745Z,100156.41
2022-11-12T08:15:38.211Z,100160.69
2022-11-12T08:18:04.643Z,100152.19
2022-11-12T08:20:31.172Z,100158.72
2022-11-12T08:23:00.290Z,100156.72
2022-11-12T08:25:27.148Z,100159.66
2022-11-12T08:27:56.965Z,100155.03
2022-11-12T08:30:23.508Z,100157.13
2022-11-12T08:33:04.956Z,100151.91
2022-11-12T08:35:32.906Z,100147.31
2022-11-12T08:38:05.018Z,100153.66
2022-11-12T08:40:32.531Z,100149.13
2022-11-12T08:43:00.682Z,100148.97
2022-11-12T08:45:28.608Z,100145.88
2022-11-12T08:48:15.541Z,100148.25
2022-11-12T08:50:42.297Z,100145.25
2022-11-12T08:53:13.443Z,100143.59
2022-11-12T08:55:39.965Z,100144.34
2022-11-12T08:58:06.890Z,100141.88
2022-11-12T09:00:36.353Z,100127.34
2022-11-12T09:03:04.979Z,100131.53
2022-11-12T09:05:32.350Z,100135.16
2022-11-12T09:08:05.953Z,100133.34
2022-11-12T09:10:33.163Z,100134.59
2022-11-12T09:13:00.072Z,100131.53
2022-11-12T09:15:42.477Z,100138.56
2022-11-12T09:18:13.423Z,100127.38
2022-11-12T09:20:40.041Z,100127.09
2022-11-12T09:23:12.808Z,100131.03
2022-11-12T09:25:40.622Z,100130.13
2022-11-12T09:28:12.233Z,100134.47
2022-11-12T09:30:43.413Z,100136.38
2022-11-12T09:33:09.996Z,100129.44
2022-11-12T09:35:36.385Z,100132.47
2022-11-12T09:38:02.770Z,100134.66
2022-11-12T09:40:53.210Z,100138.25
2022-11-12T09:43:30.993Z,100135.56
2022-11-12T09:46:26.631Z,100143.19
2022-11-12T09:48:58.007Z,100143.19
2022-11-12T09:51:42.940Z,100138.72
2022-11-12T09:54:21.421Z,100136.88
2022-11-12T09:56:49.504Z,100145.84
2022-11-12T09:59:16.592Z,100143.41
2022-11-12T10:02:04.440Z,100139.88
2022-11-12T10:04:33.879Z,100142.53
2022-11-12T10:07:13.068Z,100139.00
2022-11-12T10:09:59.431Z,100139.28
2022-11-12T10:12:54.300Z,100137.91
2022-11-12T10:15:54.529Z,100136.25
2022-11-12T10:18:28.282Z,100140.69
2022-11-12T10:20:59.026Z,100142.31
2022-11-12T10:23:32.797Z,100134.28
2022-11-12T10:26:01.058Z,100137.00
2022-11-12T10:28:38.557Z,100132.66
2022-11-12T10:31:13.454Z,100128.94
2022-11-12T10:33:39.995Z,100124.44
2022-11-12T10:36:21.099Z,100125.16
2022-11-12T10:38:52.153Z,100126.22
2022-11-12T10:41:22.815Z,100119.13
2022-11-12T10:44:01.400Z,100116.72
2022-11-12T10:46:34.376Z,100119.94
2022-11-12T10:49:08.067Z,100108.50
2022-11-12T10:51:36.914Z,100115.53
2022-11-12T10:54:29.227Z,100118.34
2022-11-12T10:56:55.994Z,100122.16
2022-11-12T10:59:23.707Z,100116.44
2022-11-12T11:01:58.906Z,100112.09
2022-11-12T11:04:37.021Z,100113.47
2022-11-12T11:07:23.141Z,100103.56
2022-11-12T11:10:24.447Z,100103.38
2022-11-12T11:13:09.485Z,100100.59
2022-11-12T11:15:36.212Z,100097.84
2022-11-12T11:18:02.849Z,100089.31
2022-11-12T11:20:43.717Z,100095.66
2022-11-12T11:23:28.917Z,100093.88
2022-11-12T11:26:00.010Z,100095.06
2022-11-12T11:28:47.450Z,100094.41
2022-11-12T11:31:37.657Z,100071.47
2022-11-12T11:34:35.502Z,100066.78
2022-11-12T11:37:27.045Z,100070.09
2022-11-12T11:39:59.369Z,100065.94
2022-11-12T11:42:41.011Z,100063.03
2022-11-12T11:45:26.479Z,100063.97
2022-11-12T11:48:31.760Z,100064.63
2022-11-12T11:51:24.825Z,100063.31
2022-11-12T11:54:27.846Z,100045.69
2022-11-12T11:56:59.060Z,100045.78
2022-11-12T11:59:54.263Z,100049.28
2022-11-12T12:02:28.182Z,100052.78
2022-11-12T12:05:12.026Z,100048.59
2022-11-12T12:07:41.367Z,100050.44
2022-11-12T12:11:01.693Z,100046.78
2022-11-12T12:13:49.116Z,100045.53
2022-11-12T12:16:49.716Z,100038.63
2022-11-12T12:19:34.166Z,100044.94
2022-11-12T12:22:03.773Z,100046.41
2022-11-12T12:24:37.043Z,100037.84
2022-11-12T12:27:12.422Z,100037.38
2022-11-12T12:29:50.856Z,100032.75
2022-11-12T12:32:21.676Z,100028.88
2022-11-12T12:35:01.132Z,100027.94
2022-11-12T12:37:36.723Z,100022.88
2022-11-12T12:40:18.706Z,100021.69
2022-11-12T12:42:47.580Z,100016.94
2022-11-12T12:45:36.873Z,100010.16
2022-11-12T12:48:07.867Z,100006.13
2022-11-12T12:50:38.227Z,100008.78
2022-11-12T12:53:15.175Z,100005.16
2022-11-12T12:55:44.355Z,100005.47
2022-11-12T12:58:18.997Z,100006.19
2022-11-12T13:01:21.275Z,100002.19
2022-11-12T13:03:58.369Z,99995.00
2022-11-12T13:06:51.385Z,99998.31
2022-11-12T13:09:17.807Z,99991.13
2022-11-12T13:12:02.670Z,100003.31
2022-11-12T13:14:34.806Z,99988.03
2022-11-12T13:17:07.015Z,99992.69
2022-11-12T13:19:46.539Z,99983.16
2022-11-12T13:22:19.031Z,99990.94
2022-11-12T13:25:10.359Z,99990.47
2022-11-12T13:27:40.064Z,99987.75
2022-11-12T13:30:30.657Z,99978.53
2022-11-12T13:32:58.326Z,99982.16
2022-11-12T13:35:24.773Z,99983.59
2022-11-12T13:37:58.633Z,99987.69
2022-11-12T13:40:45.557Z,99987.69
2022-11-12T13:43:27.581Z,99980.09
2022-11-12T13:46:06.480Z,99980.19
2022-11-12T13:48:43.934Z,99970.66
2022-11-12T13:51:19.315Z,99978.97
2022-11-12T13:53:46.300Z,99972.81
2022-11-12T13:56:23.931Z,99977.88
2022-11-12T13:58:50.380Z,99975.19
2022-11-12T14:01:20.853Z,99976.38
2022-11-12T14:03:51.183Z,99972.56
2022-11-12T14:06:23.383Z,99973.16
2022-11-12T14:09:10.473Z,99970.16
2022-11-12T14:11:47.929Z,99967.63
2022-11-12T14:14:38.622Z,99965.31
2022-11-12T14:18:02.840Z,99960.25
2022-11-12T14:20:40.213Z,99950.53
2022-11-12T14:23:24.164Z,99954.81
2022-11-12T14:25:56.507Z,99947.84
2022-11-12T14:28:28.159Z,99953.44
2022-11-12T14:30:56.675Z,99945.19
2022-11-12T14:33:27.533Z,99957.19
2022-11-12T14:36:00.069Z,99944.63
2022-11-12T14:38:43.470Z,99950.59
2022-11-12T14:41:17.856Z,99950.94
2022-11-12T14:43:47.882Z,99954.19
2022-11-12T14:46:25.873Z,99959.16
2022-11-12T14:49:06.732Z,99956.47
2022-11-12T14:51:44.323Z,99955.38
2022-11-12T14:54:20.538Z,99955.00
2022-11-12T14:56:52.243Z,99952.22
2022-11-12T14:59:19.293Z,99964.75
2022-11-12T15:02:29.445Z,99960.03
2022-11-12T15:05:01.679Z,99952.75
2022-11-12T15:07:28.325Z,99953.41
2022-11-12T15:09:55.031Z,99957.09
2022-11-12T15:12:40.352Z,99953.06
2022-11-12T15:15:44.207Z,99953.09
2022-11-12T15:18:22.015Z,99950.94
2022-11-12T15:24:11.231Z,99957.53
2022-11-12T15:35:03.398Z,99943.59
2022-11-12T15:41:06.973Z,99936.00
2022-11-12T15:47:54.410Z,99943.00
2022-11-12T15:52:20.825Z,99930.44
2022-11-12T15:58:06.881Z,99924.44
2022-11-12T16:00:36.480Z,99936.94
2022-11-12T16:03:26.638Z,99941.56
2022-11-12T16:05:53.334Z,99933.25
2022-11-12T16:08:19.886Z,99935.81
2022-11-12T16:10:47.093Z,99933.31
2022-11-12T16:13:28.807Z,99925.75
2022-11-12T16:15:55.678Z,99923.31
2022-11-12T16:18:22.453Z,99919.72
2022-11-12T16:20:49.899Z,99924.06
2022-11-12T16:23:16.518Z,99912.13
2022-11-12T16:25:43.974Z,99908.22
2022-11-12T16:28:15.434Z,99914.84
2022-11-12T16:30:42.063Z,99908.13
2022-11-12T16:33:13.126Z,99908.47
2022-11-12T16:35:40.481Z,99915.19
2022-11-12T16:38:14.393Z,99910.06
2022-11-12T16:40:41.661Z,99917.88
2022-11-12T16:43:08.061Z,99918.56
2022-11-12T16:45:42.737Z,99919.41
2022-11-12T16:48:21.098Z,99922.31
2022-11-12T16:50:48.277Z,99919.94
2022-11-12T16:53:14.747Z,99925.59
2022-11-12T16:55:41.843Z,99920.97
2022-11-12T16:58:12.871Z,99916.91
2022-11-12T17:00:41.077Z,99918.28
2022-11-12T17:03:08.488Z,99921.75
2022-11-12T17:05:34.880Z,99911.34
2022-11-12T17:08:01.325Z,99919.22
2022-11-12T17:10:27.888Z,99918.53
2022-11-12T17:12:54.407Z,99914.28
2022-11-12T17:15:20.792Z,99924.34
2022-11-12T17:17:47.338Z,99919.31
2022-11-12T17:20:14.042Z,99918.81
2022-11-12T17:22:40.428Z,99921.13
2022-11-12T17:25:08.132Z,99923.97
2022-11-12T17:27:34.653Z,99925.91
2022-11-12T17:30:01.306Z,99926.00
2022-11-12T17:32:27.930Z,99926.25
2022-11-12T17:34:54.323Z,99922.91
2022-11-12T17:37:20.945Z,99920.34
2022-11-12T17:39:47.479Z,99920.56
2022-11-12T17:42:13.900Z,99922.69
2022-11-12T17:44:40.379Z,99913.28
2022-11-12T17:47:06.765Z,99917.13
2022-11-12T17:49:33.172Z,99913.03
2022-11-12T17:51:59.651Z,99916.00
2022-11-12T17:54:26.093Z,99914.44
2022-11-12T17:56:52.522Z,99910.28
2022-11-12T17:59:18.964Z,99915.72
2022-11-12T18:01:45.404Z,99911.63
2022-11-12T18:04:12.681Z,99918.59
2022-11-12T18:06:39.139Z,99915.19
2022-11-12T18:09:08.195Z,99918.00
2022-11-12T18:11:43.008Z,99911.81
2022-11-12T18:14:09.782Z,99909.22
2022-11-12T18:16:36.681Z,99904.25
2022-11-12T18:19:03.927Z,99907.16
2022-11-12T18:21:30.555Z,99910.91
2022-11-12T18:23:57.044Z,99910.19
2022-11-12T18:26:23.469Z,99900.47
2022-11-12T18:28:58.249Z,99902.38
2022-11-12T18:31:26.861Z,99901.59
2022-11-12T18:33:54.430Z,99899.63
2022-11-12T18:36:24.295Z,99896.78
2022-11-12T18:38:52.457Z,99898.56
2022-11-12T18:41:22.844Z,99895.94
2022-11-12T18:43:49.285Z,99902.78
2022-11-12T18:46:15.788Z,99897.50
2022-11-12T18:48:42.300Z,99895.63
2022-11-12T18:51:11.445Z,99891.44
2022-11-12T18:53:39.461Z,99883.91
2022-11-12T18:56:17.315Z,99880.91
2022-11-12T18:58:44.356Z,99871.53
2022-11-12T19:01:20.810Z,99875.09
2022-11-12T19:03:48.207Z,99862.03
2022-11-12T19:06:15.163Z,99859.50
2022-11-12T19:08:42.176Z,99869.81
2022-11-12T19:11:14.117Z,99865.22
2022-11-12T19:13:41.237Z,99863.69
2022-11-12T19:16:14.019Z,99869.81
2022-11-12T19:18:41.809Z,99869.97
2022-11-12T19:21:17.321Z,99872.47
2022-11-12T19:23:44.284Z,99870.59
2022-11-12T19:26:12.813Z,99872.50
2022-11-12T19:28:40.247Z,99871.59
2022-11-12T19:31:10.812Z,99875.34
2022-11-12T19:33:37.229Z,99874.78
2022-11-12T19:36:08.849Z,99878.50
2022-11-12T19:38:35.304Z,99871.53
2022-11-12T19:41:06.045Z,99875.88
2022-11-12T19:43:32.634Z,99862.53
2022-11-12T19:45:59.193Z,99869.75
2022-11-12T19:48:27.013Z,99871.75
2022-11-12T19:50:54.587Z,99871.84
2022-11-12T19:53:20.986Z,99874.25
2022-11-12T19:55:47.647Z,99867.28
2022-11-12T19:58:14.059Z,99880.47
2022-11-12T20:00:40.613Z,99874.56
2022-11-12T20:03:07.077Z,99870.91
2022-11-12T20:05:33.584Z,99871.25
2022-11-12T20:08:00.005Z,99868.91
2022-11-12T20:10:26.463Z,99864.53
2022-11-12T20:12:54.334Z,99860.72
2022-11-12T20:15:20.937Z,99863.25
2022-11-12T20:17:47.559Z,99863.78
2022-11-12T20:20:13.986Z,99863.16
2022-11-12T20:22:40.378Z,99867.13
2022-11-12T20:25:07.196Z,99862.94
2022-11-12T20:27:33.695Z,99859.91
2022-11-12T20:30:00.204Z,99860.91
2022-11-12T20:32:26.818Z,99858.59
2022-11-12T20:34:53.279Z,99855.97
2022-11-12T20:37:19.696Z,99861.53
2022-11-12T20:39:46.651Z,99854.53
2022-11-12T20:42:13.166Z,99846.16
2022-11-12T20:44:39.678Z,99843.22
2022-11-12T20:47:06.140Z,99839.94
2022-11-12T20:49:32.634Z,99845.16
2022-11-12T20:51:59.136Z,99837.16
2022-11-12T20:54:25.875Z,99840.88
2022-11-12T20:56:52.298Z,99839.25
2022-11-12T20:59:18.739Z,99837.47
2022-11-12T21:01:45.453Z,99838.63
2022-11-12T21:04:12.377Z,99828.31
2022-11-12T21:06:39.269Z,99829.47
2022-11-12T21:09:05.794Z,99828.91
2022-11-12T21:11:32.402Z,99829.94
2022-11-12T21:14:00.383Z,99827.34
2022-11-12T21:16:27.032Z,99817.34
2022-11-12T21:18:53.573Z,99818.63
2022-11-12T21:21:21.143Z,99810.25
2022-11-12T21:23:51.248Z,99817.09
2022-11-12T21:26:20.253Z,99822.47
2022-11-12T21:28:52.083Z,99818.44
2022-11-12T21:31:21.710Z,99808.03
2022-11-12T21:33:52.604Z,99813.47
2022-11-12T21:36:22.888Z,99813.59
2022-11-12T21:38:49.823Z,99807.47
2022-11-12T21:41:18.997Z,99811.19
2022-11-12T21:43:46.825Z,99805.38
2022-11-12T21:46:19.193Z,99810.63
2022-11-12T21:48:46.647Z,99808.91
2022-11-12T21:51:16.610Z,99803.78
2022-11-12T21:53:44.736Z,99793.53
2022-11-12T21:56:16.706Z,99791.97
2022-11-12T21:58:43.859Z,99791.69
2022-11-12T22:01:20.015Z,99791.91
2022-11-12T22:03:47.730Z,99794.84
2022-11-12T22:06:14.301Z,99788.47
2022-11-12T22:08:41.084Z,99779.03
2022-11-12T22:11:10.804Z,99776.69
2022-11-12T22:13:38.213Z,99789.84
2022-11-12T22:16:09.544Z,99768.06
2022-11-12T22:18:36.066Z,99772.00
2022-11-12T22:21:07.846Z,99764.78
2022-11-12T22:23:36.081Z,99761.47
2022-11-12T22:26:11.087Z,99763.28
2022-11-12T22:28:37.771Z,99768.63
2022-11-12T22:31:05.811Z,99770.59
2022-11-12T22:33:32.334Z,99765.50
2022-11-12T22:36:08.747Z,99761.38
2022-11-12T22:38:37.054Z,99753.75
2022-11-12T22:41:08.927Z,99752.81
2022-11-12T22:43:37.770Z,99753.41
2022-11-12T22:46:12.629Z,99755.19
2022-11-12T22:48:39.882Z,99758.78
2022-11-12T22:51:08.661Z,99754.53
2022-11-12T22:53:35.412Z,99755.28
2022-11-12T22:56:06.587Z,99737.72
2022-11-12T22:58:37.730Z,99744.19
2022-11-12T23:01:05.686Z,99746.13
2022-11-12T23:03:33.717Z,99742.66
2022-11-12T23:06:03.129Z,99739.22
2022-11-12T23:08:30.973Z,99734.03
2022-11-12T23:11:01.577Z,99747.44
2022-11-12T23:13:28.089Z,99741.13
2022-11-12T23:15:54.622Z,99745.47
2022-11-12T23:18:21.088Z,99742.06
2022-11-12T23:20:47.694Z,99746.41
2022-11-12T23:23:14.135Z,99739.44
2022-11-12T23:25:40.804Z,99741.13
2022-11-12T23:28:07.825Z,99735.06
2022-11-12T23:30:35.427Z,99734.56
2022-11-12T23:33:02.422Z,99733.84
2022-11-12T23:35:29.990Z,99732.22
2022-11-12T23:37:56.569Z,99732.94
2022-11-12T23:40:26.078Z,99718.94
2022-11-12T23:42:56.181Z,99720.69
2022-11-12T23:45:23.380Z,99717.09
2022-11-12T23:47:49.767Z,99722.47
2022-11-12T23:50:16.573Z,99719.84
2022-11-12T23:52:43.015Z,99719.22
2022-11-12T23:55:09.588Z,99718.66
2022-11-12T23:57:36.019Z,99720.38
